Time;durP1;ratioP1;P1;durP2;ratioP2;P2;SDS_P1;SDS_P2;PMS_P1;PMS_P2;Temp;Humidity;BMP_temperature;BMP_pressure;BME280_temperature;BME280_humidity;BME280_pressure;Samples;Min_cycle;Max_cycle;Signal;HPM_P1;HPM_P2
2021/04/21 00:00:44;;;;;;;17.80;13.22;;;;;;;10.87;81.54;99950.09;2849653;83;21078;-62
2021/04/21 00:04:51;;;;;;;17.73;15.78;;;;;;;10.81;82.24;99950.64;2849497;82;21086;-62
2021/04/21 00:08:55;;;;;;;19.65;16.07;;;;;;;10.81;82.88;99956.80;2849716;83;21074;-62
2021/04/21 00:12:58;;;;;;;14.53;11.00;;;;;;;10.83;82.45;99948.69;2849426;83;21105;-63
2021/04/21 00:17:04;;;;;;;17.87;13.78;;;;;;;10.67;81.47;99951.84;2849691;83;21129;-62
2021/04/21 00:21:08;;;;;;;17.83;15.57;;;;;;;10.64;83.05;99945.46;2849711;82;21105;-62
2021/04/21 00:25:14;;;;;;;19.67;12.95;;;;;;;10.59;82.68;99945.86;2849703;83;21149;-64
2021/04/21 00:29:18;;;;;;;17.45;13.68;;;;;;;10.65;83.61;99942.68;2858424;83;21125;-61
2021/04/21 00:33:23;;;;;;;17.02;12.90;;;;;;;10.75;83.38;99944.52;2867812;83;21116;-63
2021/04/21 00:37:29;;;;;;;17.62;14.07;;;;;;;10.64;82.53;99942.33;2868503;83;21097;-62
2021/04/21 00:42:03;;;;;;;15.45;13.68;;;;;;;10.63;83.96;99941.12;2918711;81;21570;-62
2021/04/21 00:46:33;;;;;;;19.57;15.58;;;;;;;10.74;84.20;99936.19;2920383;81;21542;-62
2021/04/21 00:50:48;;;;;;;17.75;14.15;;;;;;;10.73;83.17;99935.36;2920836;81;21065;-62
2021/04/21 00:55:05;;;;;;;17.60;12.98;;;;;;;10.64;83.49;99939.67;2920473;81;21133;-61
2021/04/21 00:59:16;;;;;;;16.67;14.23;;;;;;;10.65;83.76;99930.70;2920598;81;21673;-61
2021/04/21 01:03:23;;;;;;;16.48;12.37;;;;;;;10.57;84.31;99928.72;2920404;81;21172;-62
2021/04/21 01:07:28;;;;;;;24.12;14.90;;;;;;;10.60;84.49;99922.77;2920530;81;21089;-62
2021/04/21 01:11:45;;;;;;;23.35;15.63;;;;;;;10.71;84.75;99928.83;2920764;81;21144;-64
2021/04/21 01:15:50;;;;;;;15.23;13.83;;;;;;;10.85;84.82;99926.77;2920353;80;21172;-61
2021/04/21 01:24:35;;;;;;;24.90;19.10;;;;;;;11.06;83.58;99922.66;2972208;77;28054;-60
2021/04/21 01:28:42;;;;;;;21.35;14.65;;;;;;;11.13;82.88;99923.81;2953864;80;21548;-60
2021/04/21 01:32:50;;;;;;;20.40;16.05;;;;;;;11.17;81.78;99923.02;2953695;80;21101;-63
2021/04/21 01:36:57;;;;;;;19.52;15.18;;;;;;;11.12;81.51;99914.63;2954112;80;21065;-61
2021/04/21 01:41:03;;;;;;;;;;;;;;;10.99;81.22;99917.55;2956444;80;21567;-61
2021/04/21 01:45:08;;;;;;;19.17;15.43;;;;;;;10.84;81.44;99917.11;2941835;80;20134;-62
2021/04/21 01:49:37;;;;;;;17.12;14.30;;;;;;;10.71;81.67;99916.86;2902836;82;21568;-62
2021/04/21 01:54:10;;;;;;;19.05;12.43;;;;;;;10.66;81.55;99913.77;2899215;82;21113;-61
2021/04/21 01:58:37;;;;;;;16.40;12.20;;;;;;;10.59;81.24;99912.61;3014464;78;22404;-62
2021/04/21 02:02:46;;;;;;;25.40;16.25;;;;;;;10.31;79.76;99912.82;2970920;80;21528;-62
2021/04/21 02:06:57;;;;;;;25.48;17.12;;;;;;;10.05;81.11;99908.80;2862749;83;21113;-61
2021/04/21 02:11:22;;;;;;;19.07;13.22;;;;;;;10.03;81.58;99906.77;2912703;81;21615;-61
2021/04/21 02:15:58;;;;;;;19.57;14.35;;;;;;;9.99;80.89;99901.34;2912841;81;21561;-62
2021/04/21 02:20:09;;;;;;;42.27;27.75;;;;;;;9.85;81.43;99911.83;2912909;81;21094;-62
2021/04/21 02:24:54;;;;;;;27.65;20.05;;;;;;;9.79;81.55;99909.20;2913157;81;21109;-62
2021/04/21 02:29:18;;;;;;;21.50;15.88;;;;;;;9.66;82.29;99903.26;2912664;81;21161;-62
2021/04/21 02:33:50;;;;;;;15.38;13.78;;;;;;;9.51;82.92;99904.89;2910094;81;21117;-63
2021/04/21 02:38:05;;;;;;;18.35;15.70;;;;;;;9.56;83.15;99904.02;2912719;81;21157;-62
2021/04/21 02:42:32;;;;;;;18.52;15.15;;;;;;;9.55;83.19;99901.50;2911390;81;21113;-61
2021/04/21 02:47:01;;;;;;;18.50;15.00;;;;;;;9.54;83.19;99898.50;2882143;81;21551;-61
2021/04/21 02:51:50;;;;;;;21.20;17.10;;;;;;;9.63;83.17;99908.80;2863127;83;21109;-64
2021/04/21 02:56:25;;;;;;;14.55;11.85;;;;;;;9.69;82.14;99906.48;2866758;82;21187;-62
2021/04/21 03:00:39;;;;;;;13.75;11.00;;;;;;;9.52;80.59;99905.25;2898329;82;21125;-63
2021/04/21 03:05:18;;;;;;;19.98;13.93;;;;;;;9.25;80.19;99895.97;2887148;82;21097;-64
2021/04/21 03:09:49;;;;;;;20.30;13.53;;;;;;;9.15;81.50;99896.36;2884143;82;21105;-64
2021/04/21 03:14:19;;;;;;;16.55;14.45;;;;;;;9.20;81.50;99888.84;2852701;83;21101;-64
2021/04/21 03:18:29;;;;;;;19.85;14.98;;;;;;;9.24;80.81;99886.80;2866684;83;21082;-61
2021/04/21 03:22:34;;;;;;;15.93;12.82;;;;;;;9.27;80.82;99884.73;2887081;82;21549;-62
2021/04/21 03:26:40;;;;;;;15.63;13.80;;;;;;;9.28;80.12;99882.91;2900724;82;21092;-62
2021/04/21 03:30:45;;;;;;;16.02;13.32;;;;;;;9.31;80.56;99880.50;2900371;82;21514;-62
2021/04/21 03:34:50;;;;;;;14.33;12.25;;;;;;;9.34;80.43;99884.22;2900042;81;21132;-61
2021/04/21 03:38:53;;;;;;;23.32;16.07;;;;;;;9.26;80.18;99886.17;2876951;82;21132;-62
2021/04/21 03:42:57;;;;;;;17.87;14.28;;;;;;;9.16;80.84;99890.08;2899936;82;21123;-62
2021/04/21 03:47:00;;;;;;;19.90;14.63;;;;;;;9.18;81.56;99883.33;2900218;82;21121;-62
2021/04/21 03:51:05;;;;;;;21.42;14.98;;;;;;;9.19;80.97;99883.19;2899428;82;21087;-62
2021/04/21 03:55:10;;;;;;;21.73;15.45;;;;;;;9.25;80.94;99892.45;2899174;81;21096;-59
2021/04/21 03:59:15;;;;;;;20.43;17.27;;;;;;;9.32;80.83;99892.80;2899603;82;21626;-60
2021/04/21 04:03:25;;;;;;;21.35;19.15;;;;;;;9.39;80.88;99888.65;2882200;81;21170;-58
2021/04/21 04:07:28;;;;;;;21.33;17.10;;;;;;;9.47;80.52;99891.52;2882808;81;21135;-59
2021/04/21 04:11:42;;;;;;;26.55;16.32;;;;;;;9.49;80.13;99897.55;2875769;82;21187;-58
2021/04/21 04:15:49;;;;;;;23.70;17.73;;;;;;;9.51;79.81;99895.60;2889398;82;21168;-59
2021/04/21 04:19:55;;;;;;;19.17;15.60;;;;;;;9.55;79.75;99894.36;2873395;82;21080;-58
2021/04/21 04:23:59;;;;;;;19.23;14.18;;;;;;;9.64;80.04;99891.92;2899521;81;21574;-59
2021/04/21 04:28:04;;;;;;;19.85;15.30;;;;;;;9.76;79.52;99886.88;2899396;82;21088;-62
2021/04/21 04:32:11;;;;;;;20.70;18.15;;;;;;;9.71;79.00;99891.25;2887703;81;21131;-62
2021/04/21 04:36:15;;;;;;;20.75;17.00;;;;;;;9.76;78.81;99896.69;2871581;81;21105;-61
2021/04/21 04:40:19;;;;;;;17.45;12.40;;;;;;;9.75;78.98;99898.98;2897901;82;21166;-61
2021/04/21 04:44:22;;;;;;;20.77;16.25;;;;;;;10.01;80.19;99898.06;2860606;83;21129;-62
2021/04/21 04:48:37;;;;;;;20.50;15.80;;;;;;;10.26;79.88;99903.44;2882858;82;21137;-61
2021/04/21 04:52:44;;;;;;;21.90;16.70;;;;;;;10.81;80.41;99910.73;2878613;82;21173;-62
2021/04/21 04:56:47;;;;;;;24.23;18.50;;;;;;;11.33;78.92;99903.00;2881925;82;21221;-64
2021/04/21 05:00:50;;;;;;;19.92;14.93;;;;;;;11.80;78.00;99907.59;2881798;82;21161;-63
2021/04/21 05:05:02;;;;;;;16.95;14.95;;;;;;;12.28;76.99;99909.33;2882166;82;21543;-63
2021/04/21 05:09:08;;;;;;;18.87;15.68;;;;;;;12.62;75.81;99905.23;2882259;82;22145;-64
2021/04/21 05:13:15;;;;;;;15.58;12.73;;;;;;;12.48;74.45;99903.91;2882509;82;21129;-63
2021/04/21 05:17:55;;;;;;;21.25;16.37;;;;;;;12.14;75.07;99907.13;2864367;82;21109;-64
2021/04/21 05:22:26;;;;;;;19.62;14.05;;;;;;;11.81;76.38;99908.80;2858616;83;21153;-63
2021/04/21 05:26:58;;;;;;;31.25;16.02;;;;;;;11.53;77.52;99907.34;2859494;83;21101;-63
2021/04/21 05:31:18;;;;;;;19.27;14.30;;;;;;;11.43;78.33;99911.34;2859790;83;21133;-63
2021/04/21 05:35:45;;;;;;;24.05;14.98;;;;;;;11.26;78.69;99919.55;2859057;83;21143;-63
2021/04/21 05:40:44;;;;;;;20.88;14.93;;;;;;;11.13;79.09;99918.97;2859526;83;21161;-63
2021/04/21 05:45:38;;;;;;;20.00;13.78;;;;;;;11.00;79.43;99922.75;2859373;83;21137;-65
2021/04/21 05:50:04;;;;;;;19.87;14.65;;;;;;;10.91;80.06;99934.20;2859196;83;21094;-63
2021/04/21 05:54:41;;;;;;;19.80;15.85;;;;;;;11.36;81.92;99926.68;2859417;83;21114;-63
2021/04/21 05:59:27;;;;;;;21.37;16.23;;;;;;;12.08;81.38;99936.53;2784574;84;21145;-65
2021/04/21 06:03:33;;;;;;;20.72;16.10;;;;;;;12.78;79.60;99928.59;2782565;85;21135;-65
2021/04/21 06:07:36;;;;;;;21.50;17.30;;;;;;;13.31;77.47;99931.50;2859926;83;21165;-65
2021/04/21 06:11:40;;;;;;;21.40;18.32;;;;;;;13.77;77.28;99936.77;2860151;83;21118;-65
2021/04/21 06:15:45;;;;;;;21.73;17.27;;;;;;;14.14;76.48;99930.82;2860150;83;21114;-66
2021/04/21 06:19:48;;;;;;;23.35;18.42;;;;;;;14.35;75.65;99925.10;2860199;83;21233;-65
2021/04/21 06:23:57;;;;;;;23.45;16.93;;;;;;;14.54;75.32;99921.81;2860147;83;21121;-66
2021/04/21 06:28:20;;;;;;;21.60;18.40;;;;;;;14.77;74.20;99922.11;2860243;83;21540;-66
2021/04/21 06:32:24;;;;;;;27.67;19.17;;;;;;;15.03;74.86;99930.54;2860392;83;21098;-65
2021/04/21 06:36:38;;;;;;;20.52;17.37;;;;;;;15.30;73.58;99927.27;2860320;83;21114;-65
2021/04/21 06:40:43;;;;;;;22.70;17.87;;;;;;;15.45;72.59;99933.31;2860127;83;21101;-65
2021/04/21 06:44:50;;;;;;;17.75;15.53;;;;;;;15.54;71.37;99920.23;2860503;83;21141;-65
2021/04/21 06:48:58;;;;;;;25.82;16.23;;;;;;;15.61;70.42;99926.59;2815919;84;21097;-66
2021/04/21 06:53:06;;;;;;;21.37;16.42;;;;;;;15.47;69.94;99933.98;2815817;84;21154;-65
2021/04/21 06:57:32;;;;;;;30.25;16.10;;;;;;;15.52;71.33;99923.59;3096263;76;22853;-63
2021/04/21 07:01:35;;;;;;;24.25;16.23;;;;;;;15.56;69.81;99928.95;3024321;78;21101;-64
2021/04/21 07:05:42;;;;;;;19.70;14.20;;;;;;;15.61;69.49;99928.45;3024221;78;21089;-64
2021/04/21 07:09:47;;;;;;;18.92;15.28;;;;;;;15.52;68.87;99927.09;3024273;78;21117;-64
2021/04/21 07:13:51;;;;;;;20.93;16.17;;;;;;;15.65;71.12;99925.77;3024732;78;21073;-64
2021/04/21 07:17:55;;;;;;;18.52;15.63;;;;;;;15.88;70.27;99927.27;3024601;78;21081;-64
2021/04/21 07:22:01;;;;;;;16.10;13.08;;;;;;;15.98;69.26;99925.77;3024804;78;21070;-63
2021/04/21 07:26:06;;;;;;;17.32;12.75;;;;;;;15.99;69.07;99918.88;3024158;78;21120;-64
2021/04/21 07:30:11;;;;;;;19.32;14.90;;;;;;;16.05;68.67;99917.37;3024486;78;21053;-64
2021/04/21 07:34:35;;;;;;;20.90;15.28;;;;;;;16.15;69.09;99919.05;3024452;78;21097;-63
2021/04/21 07:38:45;;;;;;;15.28;13.40;;;;;;;16.19;68.98;99923.05;3024553;78;21069;-64
2021/04/21 07:42:51;;;;;;;23.05;16.00;;;;;;;16.27;68.72;99918.50;3024618;78;21089;-64
2021/04/21 07:47:10;;;;;;;17.15;14.35;;;;;;;16.35;67.86;99925.70;3061388;77;21081;-64
2021/04/21 07:51:25;;;;;;;20.52;14.35;;;;;;;16.57;69.15;99927.29;3079006;77;21089;-65
2021/04/21 07:55:28;;;;;;;20.95;16.02;;;;;;;16.48;67.15;99926.98;2940216;80;21494;-65
2021/04/21 07:59:37;;;;;;;15.75;13.55;;;;;;;16.49;67.59;99924.63;2914460;81;21088;-65
2021/04/21 08:03:41;;;;;;;25.57;16.48;;;;;;;16.50;67.63;99926.30;2913950;81;21088;-64
2021/04/21 08:08:02;;;;;;;16.77;15.00;;;;;;;16.57;67.87;99932.66;2913429;81;21134;-65
2021/04/21 08:12:13;;;;;;;21.90;14.70;;;;;;;16.63;68.99;99942.70;2913296;80;21147;-64
2021/04/21 08:16:31;;;;;;;20.92;15.45;;;;;;;16.74;67.27;99936.62;2913298;81;21084;-64
2021/04/21 08:20:51;;;;;;;25.45;15.68;;;;;;;16.77;67.71;99933.06;2913547;81;21104;-65
2021/04/21 08:24:57;;;;;;;19.05;15.45;;;;;;;16.78;67.37;99925.86;2911153;81;21104;-65
2021/04/21 08:29:00;;;;;;;16.17;13.75;;;;;;;16.89;68.70;99933.50;2913416;81;21107;-63
2021/04/21 08:33:03;;;;;;;17.77;15.13;;;;;;;17.02;66.51;99936.17;2913573;81;21511;-64
2021/04/21 08:37:08;;;;;;;18.23;13.95;;;;;;;17.12;65.81;99939.48;2913545;81;21057;-65
2021/04/21 08:41:17;;;;;;;19.17;13.95;;;;;;;17.15;65.35;99947.19;2913919;81;21088;-64
2021/04/21 08:45:20;;;;;;;16.75;12.68;;;;;;;16.92;63.39;99945.27;2965451;80;21100;-64
2021/04/21 08:49:23;;;;;;;18.80;13.13;;;;;;;16.90;63.92;99946.45;2964853;80;21096;-65
2021/04/21 08:53:28;;;;;;;16.05;13.78;;;;;;;16.96;63.99;99947.92;2965005;80;21088;-64
2021/04/21 08:57:32;;;;;;;13.22;11.83;;;;;;;17.01;65.72;99949.27;2957261;80;21105;-64
2021/04/21 09:01:35;;;;;;;16.75;14.98;;;;;;;17.01;63.99;99941.21;2957016;80;21090;-64
2021/04/21 09:05:39;;;;;;;15.65;12.98;;;;;;;17.04;63.79;99948.91;2975491;80;21131;-64
2021/04/21 09:09:43;;;;;;;16.42;13.75;;;;;;;17.02;63.45;99946.91;2956913;80;21094;-65
2021/04/21 09:13:50;;;;;;;19.07;12.78;;;;;;;17.19;64.23;99953.88;2975651;80;21193;-65
2021/04/21 09:22:11;;;;;;;13.50;11.97;;;;;;;17.58;63.48;99951.25;3001263;77;22390;-63
2021/04/21 09:26:17;;;;;;;22.05;14.58;;;;;;;17.73;61.57;99948.11;2955291;80;21121;-63
2021/04/21 09:30:22;;;;;;;18.42;13.83;;;;;;;17.99;61.39;99940.13;2955242;80;21544;-63
2021/04/21 09:34:26;;;;;;;16.93;10.85;;;;;;;18.08;61.42;99932.84;2955379;79;21547;-63
2021/04/21 09:38:30;;;;;;;17.37;14.63;;;;;;;17.92;59.59;99952.66;2955261;80;21120;-64
2021/04/21 09:42:33;;;;;;;17.35;12.53;;;;;;;17.89;62.47;99950.34;2955449;79;21046;-62
2021/04/21 09:46:40;;;;;;;14.28;12.63;;;;;;;17.74;62.52;99944.41;2925627;80;21074;-63
2021/04/21 09:50:48;;;;;;;15.93;12.70;;;;;;;17.37;61.35;99940.13;2903893;81;21102;-62
2021/04/21 09:54:52;;;;;;;24.35;14.38;;;;;;;17.20;62.90;99935.91;2900967;82;21101;-63
2021/04/21 09:59:01;;;;;;;15.55;11.75;;;;;;;17.21;62.63;99935.71;2903833;82;21114;-63
2021/04/21 10:03:17;;;;;;;14.00;9.75;;;;;;;17.33;62.10;99929.94;2903895;82;21122;-63
2021/04/21 10:07:21;;;;;;;15.40;11.10;;;;;;;17.57;61.49;99935.61;2903889;82;21113;-63
2021/04/21 10:11:24;;;;;;;13.50;10.80;;;;;;;17.72;60.20;99927.61;2903911;82;21121;-62
2021/04/21 10:15:30;;;;;;;17.42;12.60;;;;;;;17.84;59.43;99931.52;2904057;82;21153;-63
2021/04/21 10:19:35;;;;;;;14.78;12.35;;;;;;;17.90;60.80;99929.95;2910762;81;21179;-64
2021/04/21 10:23:38;;;;;;;9.90;8.83;;;;;;;17.95;60.16;99917.31;2927029;81;21503;-64
2021/04/21 10:27:41;;;;;;;13.22;10.85;;;;;;;18.01;59.33;99915.22;2927232;81;21105;-65
2021/04/21 10:31:47;;;;;;;14.63;10.28;;;;;;;18.10;57.90;99911.47;2926698;81;21164;-65
2021/04/21 10:35:50;;;;;;;15.38;10.03;;;;;;;18.22;60.53;99909.65;2926700;81;21104;-64
2021/04/21 10:39:55;;;;;;;11.80;9.33;;;;;;;18.22;57.65;99913.19;2926557;81;21105;-65
2021/04/21 10:44:19;;;;;;;12.82;8.78;;;;;;;18.19;58.11;99913.56;2926478;81;21089;-65
2021/04/21 10:52:59;;;;;;;10.88;8.90;;;;;;;18.10;53.89;99900.70;3001185;77;22706;-63
2021/04/21 10:57:25;;;;;;;13.18;6.78;;;;;;;18.04;55.44;99901.95;2955558;80;21184;-62
2021/04/21 11:01:35;;;;;;;9.90;6.58;;;;;;;18.11;52.26;99893.45;2955506;80;21543;-64
2021/04/21 11:05:43;;;;;;;12.23;7.92;;;;;;;18.22;53.54;99898.88;2955370;80;21559;-64
2021/04/21 11:09:58;;;;;;;13.55;8.30;;;;;;;18.24;53.47;99895.49;2955683;80;21106;-64
2021/04/21 11:14:01;;;;;;;11.90;9.33;;;;;;;18.32;52.86;99891.38;2955408;80;21109;-64
2021/04/21 11:18:12;;;;;;;9.58;6.33;;;;;;;18.35;55.35;99874.84;2955704;80;21141;-64
2021/04/21 11:22:28;;;;;;;8.45;7.37;;;;;;;18.32;53.76;99880.61;2955401;80;21109;-64
2021/04/21 11:26:37;;;;;;;12.55;8.90;;;;;;;18.24;52.67;99868.08;2951586;79;21101;-64
2021/04/21 11:30:53;;;;;;;8.90;7.47;;;;;;;18.27;53.48;99885.69;2960705;80;21085;-64
2021/04/21 11:35:00;;;;;;;14.28;7.55;;;;;;;18.34;53.30;99876.36;2960961;80;21068;-64
2021/04/21 11:39:05;;;;;;;11.83;8.13;;;;;;;18.43;51.96;99856.41;2955727;80;21077;-63
2021/04/21 11:43:17;;;;;;;13.00;7.20;;;;;;;18.54;52.35;99874.76;2960642;80;21531;-64
2021/04/21 11:47:32;;;;;;;11.00;6.92;;;;;;;18.66;54.35;99861.64;2921925;80;21084;-63
2021/04/21 11:51:46;;;;;;;9.08;7.70;;;;;;;18.67;50.89;99864.68;2920593;81;21606;-63
2021/04/21 11:55:55;;;;;;;11.97;8.90;;;;;;;18.79;48.77;99862.33;2928719;81;21095;-64
2021/04/21 11:59:59;;;;;;;10.20;9.15;;;;;;;18.73;49.40;99860.90;2928299;81;21103;-64
2021/04/21 12:04:07;;;;;;;9.90;8.38;;;;;;;18.55;51.44;99860.80;2927736;81;21092;-64
2021/04/21 12:08:11;;;;;;;11.63;7.85;;;;;;;18.43;52.29;99853.72;2927393;81;21096;-64
2021/04/21 12:12:26;;;;;;;9.33;7.67;;;;;;;18.56;52.54;99851.69;2927337;81;21609;-64
2021/04/21 12:16:32;;;;;;;14.00;7.77;;;;;;;18.74;52.78;99850.45;2927796;81;21119;-63
2021/04/21 12:20:37;;;;;;;8.48;7.12;;;;;;;18.92;53.31;99849.50;2927627;81;21141;-64
2021/04/21 12:24:40;;;;;;;9.53;5.78;;;;;;;19.09;51.87;99855.50;2927677;81;21163;-63
2021/04/21 12:28:52;;;;;;;9.03;6.05;;;;;;;19.17;50.25;99836.20;2927526;81;21178;-64
2021/04/21 12:33:07;;;;;;;8.20;6.58;;;;;;;19.07;49.94;99839.22;2924798;81;21676;-65
2021/04/21 12:37:10;;;;;;;7.45;5.37;;;;;;;19.07;48.80;99831.13;2927467;81;21159;-63
2021/04/21 12:41:19;;;;;;;5.45;4.67;;;;;;;18.92;47.17;99841.42;2930243;80;21156;-64
2021/04/21 12:45:30;;;;;;;11.95;6.35;;;;;;;18.68;48.84;99835.38;2930923;80;21148;-65
2021/04/21 12:49:48;;;;;;;13.48;8.13;;;;;;;18.87;48.50;99820.95;2930531;81;21132;-64
2021/04/21 12:53:52;;;;;;;8.03;7.15;;;;;;;19.13;50.09;99827.13;2903427;82;21168;-65
2021/04/21 12:57:54;;;;;;;9.68;8.00;;;;;;;19.26;50.30;99827.78;2903516;82;21118;-64
2021/04/21 13:01:57;;;;;;;8.90;7.35;;;;;;;19.32;51.19;99819.94;2903752;82;21105;-64
2021/04/21 13:06:00;;;;;;;9.55;7.03;;;;;;;19.35;51.39;99815.49;2903626;82;21093;-65
2021/04/21 13:10:12;;;;;;;11.78;7.72;;;;;;;19.35;51.00;99810.10;2903749;82;21093;-65
2021/04/21 13:14:21;;;;;;;9.73;7.42;;;;;;;19.33;50.28;99806.77;2904585;79;21117;-65
2021/04/21 13:18:36;;;;;;;11.43;7.62;;;;;;;19.43;50.97;99807.78;2955886;80;21093;-64
2021/04/21 13:22:38;;;;;;;9.20;5.45;;;;;;;19.22;51.19;99804.91;2945271;80;21095;-63
2021/04/21 13:26:46;;;;;;;11.45;6.45;;;;;;;18.70;49.83;99797.45;2952644;80;21103;-61
2021/04/21 13:31:15;;;;;;;16.17;5.60;;;;;;;18.40;51.08;99798.37;2951418;80;21124;-61
2021/04/21 13:35:22;;;;;;;5.87;5.28;;;;;;;18.29;50.90;99794.84;2952773;80;21091;-63
2021/04/21 13:39:26;;;;;;;9.90;6.60;;;;;;;18.67;50.08;99785.22;2953057;80;21578;-63
2021/04/21 13:43:30;;;;;;;8.53;6.65;;;;;;;19.12;51.81;99774.77;2953280;80;21569;-62
2021/04/21 13:47:33;;;;;;;11.35;6.47;;;;;;;19.43;50.13;99772.19;2904858;80;21128;-62
2021/04/21 13:51:37;;;;;;;5.33;4.28;;;;;;;19.65;49.15;99768.06;2904700;80;21134;-62
2021/04/21 13:55:40;;;;;;;12.20;4.58;;;;;;;19.61;46.23;99760.06;2904717;82;21097;-62
2021/04/21 13:59:43;;;;;;;6.42;5.67;;;;;;;19.51;46.07;99769.36;2904574;82;21105;-62
2021/04/21 14:03:49;;;;;;;5.40;4.40;;;;;;;19.23;47.81;99773.41;2904559;82;21148;-62
2021/04/21 14:07:53;;;;;;;4.47;3.90;;;;;;;18.85;47.97;99766.40;2903739;82;21133;-62
2021/04/21 14:11:59;;;;;;;6.67;5.42;;;;;;;18.92;46.21;99780.79;2904075;82;21602;-61
2021/04/21 14:16:01;;;;;;;6.72;5.17;;;;;;;18.81;46.78;99772.70;2914404;80;21102;-62
2021/04/21 14:20:09;;;;;;;4.47;3.77;;;;;;;18.73;47.16;99750.45;2951842;80;21082;-62
2021/04/21 14:24:12;;;;;;;7.28;4.85;;;;;;;18.52;42.38;99761.53;2952037;80;21082;-61
2021/04/21 14:28:16;;;;;;;5.55;5.05;;;;;;;18.63;46.26;99766.40;2951944;79;21094;-61
2021/04/21 14:32:21;;;;;;;7.78;5.40;;;;;;;18.89;47.19;99758.27;2952224;80;21078;-62
2021/04/21 14:36:26;;;;;;;10.55;4.83;;;;;;;19.12;47.26;99752.67;2952476;80;21082;-61
2021/04/21 14:40:29;;;;;;;5.62;4.33;;;;;;;19.26;46.03;99757.68;2951995;80;21074;-61
2021/04/21 14:44:32;;;;;;;8.78;7.87;;;;;;;19.34;45.70;99739.67;2952364;80;21098;-61
2021/04/21 14:48:35;;;;;;;7.03;5.55;;;;;;;19.46;46.24;99744.00;2952523;80;21090;-61
2021/04/21 14:52:38;;;;;;;5.90;4.67;;;;;;;19.52;46.55;99738.66;2958660;80;21160;-61
2021/04/21 14:56:42;;;;;;;4.95;4.20;;;;;;;19.46;47.65;99750.24;2961551;80;21129;-61
2021/04/21 15:00:46;;;;;;;7.93;4.30;;;;;;;19.46;46.07;99738.11;2961902;80;21078;-62
2021/04/21 15:04:49;;;;;;;5.97;4.10;;;;;;;19.48;44.24;99734.69;2961436;80;21094;-61
2021/04/21 15:08:54;;;;;;;6.92;4.37;;;;;;;19.55;44.00;99739.60;2961404;80;21102;-62
2021/04/21 15:12:59;;;;;;;4.87;3.62;;;;;;;19.59;45.89;99739.20;2961687;80;21125;-61
2021/04/21 15:17:05;;;;;;;8.10;4.65;;;;;;;19.24;46.02;99719.27;2961941;80;21082;-61
2021/04/21 15:21:16;;;;;;;8.88;4.95;;;;;;;19.24;46.02;99719.27;2961778;80;21054;-62
2021/04/21 15:25:23;;;;;;;6.03;3.92;;;;;;;19.31;47.07;99727.94;2961557;80;21527;-61
2021/04/21 15:29:26;;;;;;;5.05;4.47;;;;;;;19.23;44.55;99721.65;2961371;80;21101;-62
2021/04/21 15:33:29;;;;;;;5.33;4.37;;;;;;;19.26;48.23;99733.41;2961692;80;21113;-61
2021/04/21 15:37:32;;;;;;;7.28;3.75;;;;;;;19.33;46.31;99727.22;2961866;80;21109;-61
2021/04/21 15:41:36;;;;;;;3.77;3.37;;;;;;;19.26;44.64;99727.17;2961831;80;21082;-62
2021/04/21 15:45:40;;;;;;;6.50;4.67;;;;;;;19.21;45.85;99732.33;2961831;80;21115;-61
2021/04/21 15:49:45;;;;;;;5.42;4.42;;;;;;;19.20;47.62;99736.05;2961700;80;21105;-62
2021/04/21 15:53:54;;;;;;;6.53;4.67;;;;;;;19.12;48.04;99732.45;2954024;80;21143;-61
2021/04/21 15:58:07;;;;;;;10.55;4.33;;;;;;;19.13;46.44;99740.05;3029683;77;22945;-60
2021/04/21 16:02:16;;;;;;;4.90;3.92;;;;;;;19.01;47.12;99728.12;2941953;81;21111;-60
2021/04/21 16:06:20;;;;;;;5.67;3.55;;;;;;;18.95;46.95;99727.84;2985208;79;21098;-60
2021/04/21 16:10:26;;;;;;;7.30;4.65;;;;;;;18.80;47.52;99728.44;2994263;79;21563;-60
2021/04/21 16:14:30;;;;;;;7.03;5.15;;;;;;;18.77;48.84;99741.80;2976474;79;21118;-61
2021/04/21 16:18:33;;;;;;;12.47;5.83;;;;;;;18.82;49.55;99734.45;2916335;81;21153;-61
2021/04/21 16:22:38;;;;;;;10.00;5.05;;;;;;;18.70;48.78;99736.34;2912286;81;21114;-61
2021/04/21 16:26:41;;;;;;;5.85;5.00;;;;;;;18.62;49.13;99741.84;2912167;81;21097;-62
2021/04/21 16:30:50;;;;;;;5.92;5.25;;;;;;;18.49;49.37;99737.69;2912068;81;21129;-61
2021/04/21 16:34:53;;;;;;;7.97;4.80;;;;;;;18.37;51.06;99738.17;2911886;81;21138;-62
2021/04/21 16:38:56;;;;;;;4.47;3.50;;;;;;;18.20;49.41;99737.58;2906512;81;21144;-62
2021/04/21 16:42:59;;;;;;;4.67;4.22;;;;;;;17.96;49.15;99737.36;2861081;83;21141;-62
2021/04/21 16:47:03;;;;;;;6.60;4.37;;;;;;;17.81;49.39;99730.12;2823948;83;21591;-62
2021/04/21 16:51:06;;;;;;;7.22;4.30;;;;;;;17.60;50.15;99742.16;2788315;85;21172;-62
2021/04/21 16:55:11;;;;;;;9.00;5.37;;;;;;;17.46;51.59;99741.13;2775217;85;21135;-63
2021/04/21 16:59:16;;;;;;;7.65;5.03;;;;;;;17.43;52.14;99736.13;2804045;84;21141;-63
2021/04/21 17:03:25;;;;;;;9.80;5.58;;;;;;;17.33;52.02;99735.05;2809697;84;21201;-63
2021/04/21 17:07:36;;;;;;;6.90;5.05;;;;;;;17.15;53.40;99749.67;2821612;84;21110;-63
2021/04/21 17:11:46;;;;;;;7.37;5.00;;;;;;;16.87;53.33;99750.19;2820605;84;21145;-62
2021/04/21 17:15:54;;;;;;;6.33;5.60;;;;;;;16.61;52.37;99759.45;2820736;84;21116;-62
2021/04/21 17:19:58;;;;;;;8.30;4.25;;;;;;;16.44;51.33;99760.57;2820558;84;21102;-62
2021/04/21 17:24:04;;;;;;;7.70;5.78;;;;;;;16.33;50.25;99762.66;2820640;84;21158;-64
2021/04/21 17:28:12;;;;;;;10.43;8.88;;;;;;;16.24;50.75;99763.70;2820230;84;21581;-63
2021/04/21 17:32:19;;;;;;;6.45;5.53;;;;;;;16.11;53.02;99766.47;2820211;84;21153;-62
2021/04/21 17:36:22;;;;;;;5.62;4.58;;;;;;;15.84;55.04;99765.85;2820411;83;21122;-62
2021/04/21 17:40:27;;;;;;;5.37;4.62;;;;;;;15.42;56.30;99769.13;2820401;84;21547;-62
2021/04/21 17:44:32;;;;;;;8.75;5.55;;;;;;;15.16;56.82;99770.70;2820268;84;21531;-62
2021/04/21 17:48:40;;;;;;;6.70;6.03;;;;;;;15.03;57.85;99772.52;2812048;84;21175;-63
2021/04/21 17:52:45;;;;;;;7.62;5.72;;;;;;;14.89;60.32;99774.55;2773208;85;21121;-63
2021/04/21 17:56:53;;;;;;;7.28;5.65;;;;;;;14.92;60.34;99779.05;2773152;85;21527;-62
2021/04/21 18:01:00;;;;;;;7.53;5.45;;;;;;;14.63;60.63;99777.66;2773536;85;21113;-62
2021/04/21 18:05:09;;;;;;;7.12;6.47;;;;;;;14.32;61.34;99786.79;2773287;85;21189;-64
2021/04/21 18:09:12;;;;;;;8.03;6.05;;;;;;;14.06;61.74;99788.53;2772994;85;21113;-63
2021/04/21 18:13:25;;;;;;;12.13;7.42;;;;;;;13.91;62.39;99787.45;2786594;82;21169;-64
2021/04/21 18:17:29;;;;;;;8.48;6.87;;;;;;;13.81;63.15;99788.42;2811804;84;21624;-63
2021/04/21 18:21:37;;;;;;;11.03;5.70;;;;;;;13.73;63.29;99791.55;2785172;84;21502;-63
2021/04/21 18:25:42;;;;;;;11.97;7.70;;;;;;;13.71;63.55;99797.05;2772770;85;21153;-61
2021/04/21 18:29:46;;;;;;;10.28;6.92;;;;;;;13.73;63.63;99799.05;2771628;85;21653;-61
2021/04/21 18:33:50;;;;;;;10.13;6.65;;;;;;;13.75;62.96;99801.58;2771961;85;21201;-61
2021/04/21 18:37:53;;;;;;;12.68;8.75;;;;;;;13.59;62.93;99807.16;2771677;85;21197;-60
2021/04/21 18:41:57;;;;;;;15.60;6.92;;;;;;;13.41;63.21;99805.34;2772138;85;21146;-61
2021/04/21 18:46:05;;;;;;;9.60;6.83;;;;;;;13.30;63.61;99812.29;2819276;82;21164;-60
2021/04/21 18:50:12;;;;;;;8.88;7.47;;;;;;;13.20;62.84;99812.38;2818050;82;21149;-61
2021/04/21 18:54:14;;;;;;;8.88;7.03;;;;;;;13.07;63.37;99807.92;2771997;85;21173;-61
2021/04/21 18:58:17;;;;;;;10.03;7.28;;;;;;;12.91;63.99;99816.13;2771681;85;21176;-61
2021/04/21 19:02:21;;;;;;;8.10;6.55;;;;;;;12.86;64.21;99826.42;2771898;85;21612;-63
2021/04/21 19:06:24;;;;;;;9.50;6.80;;;;;;;12.79;64.06;99820.03;2771722;85;21619;-62
2021/04/21 19:10:30;;;;;;;12.82;8.43;;;;;;;12.71;64.51;99825.61;2771667;85;21644;-63
2021/04/21 19:14:36;;;;;;;11.35;7.75;;;;;;;12.71;64.81;99830.95;2798979;83;21967;-64
2021/04/21 19:18:40;;;;;;;;;;;;;;;12.64;65.16;99823.20;2820094;84;21166;-64
2021/04/21 19:22:45;;;;;;;11.97;7.92;;;;;;;12.64;65.16;99823.20;2848204;83;20195;-64
2021/04/21 19:26:48;;;;;;;13.80;9.50;;;;;;;12.56;65.06;99822.62;2848236;83;21169;-65
2021/04/21 19:30:51;;;;;;;12.93;8.58;;;;;;;12.50;65.09;99823.71;2805586;84;21162;-63